sensor_id;sensor_type;location;lat;lon;timestamp;pressure;altitude;pressure_sealevel;temperature;humidity
9740;BME280;4909;42.680;26.324;2023-05-01T00:02:25;98431.53;;;17.85;66.65
9740;BME280;4909;42.680;26.324;2023-05-01T00:04:52;98439.75;;;18.06;67.57
9740;BME280;4909;42.680;26.324;2023-05-01T00:07:19;98440.50;;;18.08;66.13
9740;BME280;4909;42.680;26.324;2023-05-01T00:09:46;98427.72;;;18.34;66.40
9740;BME280;4909;42.680;26.324;2023-05-01T00:12:14;98435.91;;;18.54;63.89
9740;BME280;4909;42.680;26.324;2023-05-01T00:14:40;98437.72;;;18.43;63.84
9740;BME280;4909;42.680;26.324;2023-05-01T00:17:07;98421.81;;;18.06;61.47
9740;BME280;4909;42.680;26.324;2023-05-01T00:19:34;98443.00;;;17.76;65.67
9740;BME280;4909;42.680;26.324;2023-05-01T00:22:01;98441.13;;;17.65;66.07
9740;BME280;4909;42.680;26.324;2023-05-01T00:24:28;98440.72;;;17.11;66.16
9740;BME280;4909;42.680;26.324;2023-05-01T00:26:54;98442.25;;;16.53;65.87
9740;BME280;4909;42.680;26.324;2023-05-01T00:29:23;98439.69;;;16.52;69.06
9740;BME280;4909;42.680;26.324;2023-05-01T00:31:50;98433.78;;;16.72;69.66
9740;BME280;4909;42.680;26.324;2023-05-01T00:34:16;98433.53;;;16.88;67.69
9740;BME280;4909;42.680;26.324;2023-05-01T00:36:43;98440.47;;;17.14;68.65
9740;BME280;4909;42.680;26.324;2023-05-01T00:39:10;98431.34;;;16.69;68.10
9740;BME280;4909;42.680;26.324;2023-05-01T00:41:37;98434.31;;;17.25;68.48
9740;BME280;4909;42.680;26.324;2023-05-01T00:44:04;98440.44;;;17.51;66.83
9740;BME280;4909;42.680;26.324;2023-05-01T00:46:33;98428.47;;;17.55;64.91
9740;BME280;4909;42.680;26.324;2023-05-01T00:49:00;98428.44;;;17.44;65.68
9740;BME280;4909;42.680;26.324;2023-05-01T00:51:28;98434.22;;;17.03;66.59
9740;BME280;4909;42.680;26.324;2023-05-01T00:53:55;98431.19;;;16.83;67.82
9740;BME280;4909;42.680;26.324;2023-05-01T00:56:23;98442.47;;;16.63;68.51
9740;BME280;4909;42.680;26.324;2023-05-01T00:58:50;98438.28;;;16.72;69.25
9740;BME280;4909;42.680;26.324;2023-05-01T01:01:18;98436.31;;;16.86;69.88
9740;BME280;4909;42.680;26.324;2023-05-01T01:03:47;98451.78;;;17.30;68.22
9740;BME280;4909;42.680;26.324;2023-05-01T01:06:20;98459.50;;;17.59;66.73
9740;BME280;4909;42.680;26.324;2023-05-01T01:08:59;98429.19;;;17.46;64.10
9740;BME280;4909;42.680;26.324;2023-05-01T01:11:37;98457.91;;;17.91;65.33
9740;BME280;4909;42.680;26.324;2023-05-01T01:14:10;98457.28;;;17.88;65.33
9740;BME280;4909;42.680;26.324;2023-05-01T01:16:40;98447.56;;;17.63;63.89
9740;BME280;4909;42.680;26.324;2023-05-01T01:19:31;98451.38;;;17.00;61.60
9740;BME280;4909;42.680;26.324;2023-05-01T01:22:05;98457.47;;;16.78;68.24
9740;BME280;4909;42.680;26.324;2023-05-01T01:24:55;98456.88;;;16.99;68.39
9740;BME280;4909;42.680;26.324;2023-05-01T01:28:01;98463.28;;;16.60;65.62
9740;BME280;4909;42.680;26.324;2023-05-01T01:33:48;98437.28;;;17.09;69.37
9740;BME280;4909;42.680;26.324;2023-05-01T01:36:19;98465.53;;;17.50;64.99
9740;BME280;4909;42.680;26.324;2023-05-01T01:38:56;98464.06;;;17.22;68.84
9740;BME280;4909;42.680;26.324;2023-05-01T01:41:30;98477.59;;;17.44;66.37
9740;BME280;4909;42.680;26.324;2023-05-01T01:44:03;98470.81;;;17.75;66.48
9740;BME280;4909;42.680;26.324;2023-05-01T01:46:34;98477.25;;;17.49;65.83
9740;BME280;4909;42.680;26.324;2023-05-01T01:49:05;98441.16;;;17.05;63.59
9740;BME280;4909;42.680;26.324;2023-05-01T01:51:34;98486.50;;;17.21;65.19
9740;BME280;4909;42.680;26.324;2023-05-01T01:54:03;98437.53;;;16.57;69.96
9740;BME280;4909;42.680;26.324;2023-05-01T01:56:32;98476.00;;;17.18;65.22
9740;BME280;4909;42.680;26.324;2023-05-01T01:59:00;98483.06;;;17.19;68.05
9740;BME280;4909;42.680;26.324;2023-05-01T02:01:30;98490.81;;;17.58;66.37
9740;BME280;4909;42.680;26.324;2023-05-01T02:03:59;98488.72;;;17.51;67.92
9740;BME280;4909;42.680;26.324;2023-05-01T02:06:27;98486.31;;;17.11;64.23
9740;BME280;4909;42.680;26.324;2023-05-01T02:08:57;98491.00;;;17.20;67.14
9740;BME280;4909;42.680;26.324;2023-05-01T02:11:26;98498.09;;;17.45;67.89
9740;BME280;4909;42.680;26.324;2023-05-01T02:13:55;98495.81;;;17.52;66.90
9740;BME280;4909;42.680;26.324;2023-05-01T02:16:23;98494.44;;;17.46;67.59
9740;BME280;4909;42.680;26.324;2023-05-01T02:18:53;98495.28;;;17.23;67.40
9740;BME280;4909;42.680;26.324;2023-05-01T02:21:21;98491.78;;;17.10;67.62
9740;BME280;4909;42.680;26.324;2023-05-01T02:23:49;98498.19;;;16.83;66.06
9740;BME280;4909;42.680;26.324;2023-05-01T02:26:17;98493.34;;;16.88;67.84
9740;BME280;4909;42.680;26.324;2023-05-01T02:28:46;98498.75;;;17.12;68.82
9740;BME280;4909;42.680;26.324;2023-05-01T02:31:13;98496.69;;;16.79;63.26
9740;BME280;4909;42.680;26.324;2023-05-01T02:33:39;98501.41;;;16.76;70.50
9740;BME280;4909;42.680;26.324;2023-05-01T02:36:06;98516.84;;;16.34;71.14
9740;BME280;4909;42.680;26.324;2023-05-01T02:38:33;98520.06;;;16.39;71.30
9740;BME280;4909;42.680;26.324;2023-05-01T02:41:02;98510.75;;;16.07;66.03
9740;BME280;4909;42.680;26.324;2023-05-01T02:43:31;98526.28;;;16.78;71.28
9740;BME280;4909;42.680;26.324;2023-05-01T02:45:58;98522.13;;;17.23;67.92
9740;BME280;4909;42.680;26.324;2023-05-01T02:48:27;98521.81;;;17.15;69.37
9740;BME280;4909;42.680;26.324;2023-05-01T02:50:56;98523.78;;;17.36;68.40
9740;BME280;4909;42.680;26.324;2023-05-01T02:53:23;98514.91;;;17.60;63.14
9740;BME280;4909;42.680;26.324;2023-05-01T02:55:50;98516.66;;;17.72;63.59
9740;BME280;4909;42.680;26.324;2023-05-01T02:58:19;98523.84;;;17.95;64.64
9740;BME280;4909;42.680;26.324;2023-05-01T03:00:48;98521.81;;;18.21;64.14
9740;BME280;4909;42.680;26.324;2023-05-01T03:03:15;98531.03;;;18.30;65.55
9740;BME280;4909;42.680;26.324;2023-05-01T03:05:42;98524.66;;;18.19;63.81
9740;BME280;4909;42.680;26.324;2023-05-01T03:08:08;98528.06;;;18.10;62.60
9740;BME280;4909;42.680;26.324;2023-05-01T03:10:35;98526.19;;;18.11;63.02
9740;BME280;4909;42.680;26.324;2023-05-01T03:13:05;98537.78;;;18.11;64.14
9740;BME280;4909;42.680;26.324;2023-05-01T03:15:33;98529.72;;;18.00;63.55
9740;BME280;4909;42.680;26.324;2023-05-01T03:17:59;98532.41;;;18.11;64.04
9740;BME280;4909;42.680;26.324;2023-05-01T03:20:26;98549.84;;;18.30;61.35
9740;BME280;4909;42.680;26.324;2023-05-01T03:22:53;98560.59;;;17.95;64.98
9740;BME280;4909;42.680;26.324;2023-05-01T03:25:20;98549.38;;;18.01;62.76
9740;BME280;4909;42.680;26.324;2023-05-01T03:27:46;98563.06;;;18.09;63.96
9740;BME280;4909;42.680;26.324;2023-05-01T03:30:14;98563.44;;;18.15;62.42
9740;BME280;4909;42.680;26.324;2023-05-01T03:32:42;98561.25;;;18.09;64.13
9740;BME280;4909;42.680;26.324;2023-05-01T03:35:09;98573.56;;;18.01;62.10
9740;BME280;4909;42.680;26.324;2023-05-01T03:37:36;98570.88;;;17.41;65.30
9740;BME280;4909;42.680;26.324;2023-05-01T03:40:04;98569.38;;;16.87;66.49
9740;BME280;4909;42.680;26.324;2023-05-01T03:42:31;98581.06;;;16.86;64.91
9740;BME280;4909;42.680;26.324;2023-05-01T03:44:57;98586.41;;;16.48;63.57
9740;BME280;4909;42.680;26.324;2023-05-01T03:47:24;98587.88;;;16.52;70.71
9740;BME280;4909;42.680;26.324;2023-05-01T03:49:53;98588.59;;;16.69;68.48
9740;BME280;4909;42.680;26.324;2023-05-01T03:52:20;98596.34;;;16.21;67.19
9740;BME280;4909;42.680;26.324;2023-05-01T03:54:46;98568.28;;;15.60;74.55
9740;BME280;4909;42.680;26.324;2023-05-01T03:57:14;98583.50;;;16.39;74.37
9740;BME280;4909;42.680;26.324;2023-05-01T03:59:41;98572.56;;;16.55;69.22
9740;BME280;4909;42.680;26.324;2023-05-01T04:02:08;98599.50;;;16.66;72.74
9740;BME280;4909;42.680;26.324;2023-05-01T04:04:35;98595.06;;;17.28;69.81
9740;BME280;4909;42.680;26.324;2023-05-01T04:07:04;98590.34;;;17.55;66.96
9740;BME280;4909;42.680;26.324;2023-05-01T04:09:31;98601.94;;;17.92;66.94
9740;BME280;4909;42.680;26.324;2023-05-01T04:11:58;98603.38;;;18.09;65.93
9740;BME280;4909;42.680;26.324;2023-05-01T04:14:26;98591.31;;;17.91;62.46
9740;BME280;4909;42.680;26.324;2023-05-01T04:16:53;98606.19;;;17.47;62.38
9740;BME280;4909;42.680;26.324;2023-05-01T04:19:20;98606.84;;;17.25;64.43
9740;BME280;4909;42.680;26.324;2023-05-01T04:21:47;98608.41;;;16.79;61.38
9740;BME280;4909;42.680;26.324;2023-05-01T04:24:15;98615.16;;;16.59;65.73
9740;BME280;4909;42.680;26.324;2023-05-01T04:26:42;98576.19;;;16.16;71.52
9740;BME280;4909;42.680;26.324;2023-05-01T04:29:08;98615.25;;;15.79;70.01
9740;BME280;4909;42.680;26.324;2023-05-01T04:31:35;98604.19;;;15.15;73.35
9740;BME280;4909;42.680;26.324;2023-05-01T04:34:02;98617.69;;;15.55;76.82
9740;BME280;4909;42.680;26.324;2023-05-01T04:36:29;98600.50;;;15.86;75.79
9740;BME280;4909;42.680;26.324;2023-05-01T04:38:57;98616.97;;;15.39;74.95
9740;BME280;4909;42.680;26.324;2023-05-01T04:41:25;98628.78;;;15.35;77.11
9740;BME280;4909;42.680;26.324;2023-05-01T04:43:53;98635.91;;;15.77;77.99
9740;BME280;4909;42.680;26.324;2023-05-01T04:46:20;98629.34;;;16.47;74.70
9740;BME280;4909;42.680;26.324;2023-05-01T04:48:47;98621.16;;;16.88;72.42
9740;BME280;4909;42.680;26.324;2023-05-01T04:51:13;98631.47;;;17.43;71.53
9740;BME280;4909;42.680;26.324;2023-05-01T04:53:40;98633.28;;;17.92;69.13
9740;BME280;4909;42.680;26.324;2023-05-01T04:56:07;98635.25;;;17.66;66.07
9740;BME280;4909;42.680;26.324;2023-05-01T04:58:35;98638.75;;;16.79;70.30
9740;BME280;4909;42.680;26.324;2023-05-01T05:01:02;98641.88;;;16.34;73.94
9740;BME280;4909;42.680;26.324;2023-05-01T05:03:28;98652.41;;;16.49;74.57
9740;BME280;4909;42.680;26.324;2023-05-01T05:05:55;98655.69;;;16.67;71.60
9740;BME280;4909;42.680;26.324;2023-05-01T05:08:22;98665.13;;;16.46;74.69
9740;BME280;4909;42.680;26.324;2023-05-01T05:10:49;98672.97;;;16.09;74.19
9740;BME280;4909;42.680;26.324;2023-05-01T05:13:21;98680.25;;;16.07;76.72
9740;BME280;4909;42.680;26.324;2023-05-01T05:15:49;98655.63;;;15.61;75.19
9740;BME280;4909;42.680;26.324;2023-05-01T05:18:16;98690.28;;;15.77;83.84
9740;BME280;4909;42.680;26.324;2023-05-01T05:20:43;98685.38;;;16.37;76.91
9740;BME280;4909;42.680;26.324;2023-05-01T05:23:09;98685.06;;;16.69;79.11
9740;BME280;4909;42.680;26.324;2023-05-01T05:25:36;98678.97;;;17.43;76.19
9740;BME280;4909;42.680;26.324;2023-05-01T05:28:03;98679.59;;;17.46;69.36
9740;BME280;4909;42.680;26.324;2023-05-01T05:30:30;98717.69;;;17.26;68.90
9740;BME280;4909;42.680;26.324;2023-05-01T05:32:58;98706.66;;;15.99;74.18
9740;BME280;4909;42.680;26.324;2023-05-01T05:35:25;98721.16;;;15.83;76.77
9740;BME280;4909;42.680;26.324;2023-05-01T05:37:52;98719.31;;;15.97;78.45
9740;BME280;4909;42.680;26.324;2023-05-01T05:40:19;98715.53;;;15.59;76.75
9740;BME280;4909;42.680;26.324;2023-05-01T05:42:46;98720.84;;;15.45;82.68
9740;BME280;4909;42.680;26.324;2023-05-01T05:45:13;98730.38;;;16.59;80.77
9740;BME280;4909;42.680;26.324;2023-05-01T05:47:40;98736.88;;;16.94;78.46
9740;BME280;4909;42.680;26.324;2023-05-01T05:50:09;98727.13;;;17.44;77.01
9740;BME280;4909;42.680;26.324;2023-05-01T05:52:36;98726.78;;;17.74;74.38
9740;BME280;4909;42.680;26.324;2023-05-01T05:55:03;98703.06;;;17.80;73.69
9740;BME280;4909;42.680;26.324;2023-05-01T05:57:30;98738.16;;;17.77;71.67
9740;BME280;4909;42.680;26.324;2023-05-01T05:59:56;98741.88;;;18.00;71.57
9740;BME280;4909;42.680;26.324;2023-05-01T06:02:23;98731.91;;;17.90;71.94
9740;BME280;4909;42.680;26.324;2023-05-01T06:04:50;98732.31;;;17.96;72.95
9740;BME280;4909;42.680;26.324;2023-05-01T06:07:20;98738.75;;;18.30;69.88
9740;BME280;4909;42.680;26.324;2023-05-01T06:09:47;98741.06;;;18.11;70.80
9740;BME280;4909;42.680;26.324;2023-05-01T06:12:14;98740.81;;;18.27;74.14
9740;BME280;4909;42.680;26.324;2023-05-01T06:14:40;98736.81;;;18.32;74.00
9740;BME280;4909;42.680;26.324;2023-05-01T06:17:07;98744.88;;;18.80;71.88
9740;BME280;4909;42.680;26.324;2023-05-01T06:19:34;98742.88;;;18.47;69.88
9740;BME280;4909;42.680;26.324;2023-05-01T06:22:01;98749.84;;;18.49;69.88
9740;BME280;4909;42.680;26.324;2023-05-01T06:24:29;98755.81;;;18.65;71.55
9740;BME280;4909;42.680;26.324;2023-05-01T06:26:56;98754.47;;;18.95;69.82
9740;BME280;4909;42.680;26.324;2023-05-01T06:29:23;98757.16;;;18.95;71.16
9740;BME280;4909;42.680;26.324;2023-05-01T06:31:49;98759.22;;;19.26;69.50
9740;BME280;4909;42.680;26.324;2023-05-01T06:34:16;98745.31;;;19.08;68.10
9740;BME280;4909;42.680;26.324;2023-05-01T06:36:43;98756.25;;;19.29;67.95
9740;BME280;4909;42.680;26.324;2023-05-01T06:39:10;98763.38;;;19.41;65.52
9740;BME280;4909;42.680;26.324;2023-05-01T06:41:38;98766.38;;;19.72;66.93
9740;BME280;4909;42.680;26.324;2023-05-01T06:44:05;98766.84;;;19.66;63.18
9740;BME280;4909;42.680;26.324;2023-05-01T06:46:31;98775.53;;;19.58;63.89
9740;BME280;4909;42.680;26.324;2023-05-01T06:48:58;98766.19;;;19.40;59.62
9740;BME280;4909;42.680;26.324;2023-05-01T06:51:25;98768.75;;;19.30;57.52
9740;BME280;4909;42.680;26.324;2023-05-01T06:53:52;98772.16;;;19.32;61.22
9740;BME280;4909;42.680;26.324;2023-05-01T06:56:18;98775.81;;;19.77;64.26
9740;BME280;4909;42.680;26.324;2023-05-01T06:58:47;98776.78;;;19.99;55.02
9740;BME280;4909;42.680;26.324;2023-05-01T07:01:15;98777.63;;;19.77;55.14
9740;BME280;4909;42.680;26.324;2023-05-01T07:03:42;98773.34;;;19.63;57.33
9740;BME280;4909;42.680;26.324;2023-05-01T07:06:10;98780.38;;;19.42;54.26
9740;BME280;4909;42.680;26.324;2023-05-01T07:08:36;98773.50;;;19.16;57.94
9740;BME280;4909;42.680;26.324;2023-05-01T07:11:03;98783.69;;;19.34;63.32
9740;BME280;4909;42.680;26.324;2023-05-01T07:13:30;98786.56;;;19.55;56.29
9740;BME280;4909;42.680;26.324;2023-05-01T07:15:58;98793.19;;;19.27;54.65
9740;BME280;4909;42.680;26.324;2023-05-01T07:18:25;98779.22;;;19.22;56.09
9740;BME280;4909;42.680;26.324;2023-05-01T07:20:53;98804.06;;;19.15;54.72
9740;BME280;4909;42.680;26.324;2023-05-01T07:23:19;98786.34;;;19.12;52.97
9740;BME280;4909;42.680;26.324;2023-05-01T07:25:48;98793.66;;;19.10;52.66
9740;BME280;4909;42.680;26.324;2023-05-01T07:28:14;98797.31;;;19.09;52.57
9740;BME280;4909;42.680;26.324;2023-05-01T07:30:42;98793.03;;;19.18;52.17
9740;BME280;4909;42.680;26.324;2023-05-01T07:33:10;98808.66;;;19.01;52.49
9740;BME280;4909;42.680;26.324;2023-05-01T07:35:37;98800.09;;;18.96;54.09
9740;BME280;4909;42.680;26.324;2023-05-01T07:38:03;98796.88;;;18.91;55.41
9740;BME280;4909;42.680;26.324;2023-05-01T07:40:31;98761.72;;;18.71;56.29
9740;BME280;4909;42.680;26.324;2023-05-01T07:42:58;98820.19;;;19.15;54.48
9740;BME280;4909;42.680;26.324;2023-05-01T07:45:25;98815.38;;;18.96;55.64
9740;BME280;4909;42.680;26.324;2023-05-01T07:47:52;98818.56;;;19.01;57.15
9740;BME280;4909;42.680;26.324;2023-05-01T07:50:21;98825.69;;;19.13;55.17
9740;BME280;4909;42.680;26.324;2023-05-01T07:52:49;98814.31;;;19.44;52.85
9740;BME280;4909;42.680;26.324;2023-05-01T07:55:16;98829.69;;;19.31;53.40
9740;BME280;4909;42.680;26.324;2023-05-01T07:57:43;98831.47;;;19.66;52.33
9740;BME280;4909;42.680;26.324;2023-05-01T08:00:11;98820.97;;;19.85;52.33
9740;BME280;4909;42.680;26.324;2023-05-01T08:02:38;98823.66;;;19.85;52.08
9740;BME280;4909;42.680;26.324;2023-05-01T08:05:05;98824.75;;;19.71;51.64
9740;BME280;4909;42.680;26.324;2023-05-01T08:07:33;98834.81;;;19.69;51.65
9740;BME280;4909;42.680;26.324;2023-05-01T08:10:00;98839.72;;;20.20;51.23
9740;BME280;4909;42.680;26.324;2023-05-01T08:12:28;98811.69;;;19.89;50.76
9740;BME280;4909;42.680;26.324;2023-05-01T08:14:55;98836.41;;;20.16;51.07
9740;BME280;4909;42.680;26.324;2023-05-01T08:17:22;98855.50;;;20.24;49.55
9740;BME280;4909;42.680;26.324;2023-05-01T08:19:48;98842.28;;;20.10;49.37
9740;BME280;4909;42.680;26.324;2023-05-01T08:22:18;98851.22;;;19.77;46.49
9740;BME280;4909;42.680;26.324;2023-05-01T08:24:49;98853.91;;;19.77;46.26
9740;BME280;4909;42.680;26.324;2023-05-01T08:27:15;98853.66;;;19.69;46.04
9740;BME280;4909;42.680;26.324;2023-05-01T08:29:42;98850.97;;;19.69;46.33
9740;BME280;4909;42.680;26.324;2023-05-01T08:32:09;98847.16;;;19.72;47.17
9740;BME280;4909;42.680;26.324;2023-05-01T08:34:36;98849.25;;;19.68;46.48
9740;BME280;4909;42.680;26.324;2023-05-01T08:37:02;98847.16;;;19.72;47.46
9740;BME280;4909;42.680;26.324;2023-05-01T08:39:29;98851.00;;;20.14;48.26
9740;BME280;4909;42.680;26.324;2023-05-01T08:41:58;98841.31;;;20.56;46.04
9740;BME280;4909;42.680;26.324;2023-05-01T08:44:25;98848.75;;;20.74;45.48
9740;BME280;4909;42.680;26.324;2023-05-01T08:47:02;98840.06;;;21.14;46.21
9740;BME280;4909;42.680;26.324;2023-05-01T08:49:33;98854.88;;;21.19;45.62
9740;BME280;4909;42.680;26.324;2023-05-01T08:52:02;98817.66;;;21.23;45.23
9740;BME280;4909;42.680;26.324;2023-05-01T08:54:32;98852.78;;;21.64;44.73
9740;BME280;4909;42.680;26.324;2023-05-01T08:57:02;98854.63;;;21.64;43.45
9740;BME280;4909;42.680;26.324;2023-05-01T08:59:31;98819.94;;;21.39;44.29
9740;BME280;4909;42.680;26.324;2023-05-01T09:02:00;98821.31;;;21.33;44.96
9740;BME280;4909;42.680;26.324;2023-05-01T09:04:30;98846.66;;;21.10;45.44
9740;BME280;4909;42.680;26.324;2023-05-01T09:06:57;98845.75;;;20.89;44.89
9740;BME280;4909;42.680;26.324;2023-05-01T09:09:26;98851.50;;;20.95;44.48
9740;BME280;4909;42.680;26.324;2023-05-01T09:11:53;98855.66;;;20.99;44.49
9740;BME280;4909;42.680;26.324;2023-05-01T09:14:23;98850.22;;;21.10;50.21
9740;BME280;4909;42.680;26.324;2023-05-01T09:16:50;98835.44;;;21.25;44.41
9740;BME280;4909;42.680;26.324;2023-05-01T09:19:17;98852.09;;;21.31;45.63
9740;BME280;4909;42.680;26.324;2023-05-01T09:21:44;98845.91;;;21.08;45.50
9740;BME280;4909;42.680;26.324;2023-05-01T09:24:10;98849.41;;;20.88;44.17
9740;BME280;4909;42.680;26.324;2023-05-01T09:26:38;98841.53;;;20.64;44.03
9740;BME280;4909;42.680;26.324;2023-05-01T09:29:06;98847.34;;;20.37;43.76
9740;BME280;4909;42.680;26.324;2023-05-01T09:31:36;98846.72;;;20.22;44.87
9740;BME280;4909;42.680;26.324;2023-05-01T09:34:04;98843.25;;;20.09;43.23
9740;BME280;4909;42.680;26.324;2023-05-01T09:36:32;98831.13;;;19.81;43.39
9740;BME280;4909;42.680;26.324;2023-05-01T09:39:00;98830.91;;;19.84;44.00
9740;BME280;4909;42.680;26.324;2023-05-01T09:41:27;98857.47;;;19.89;42.75
9740;BME280;4909;42.680;26.324;2023-05-01T09:43:56;98843.75;;;19.81;42.35
9740;BME280;4909;42.680;26.324;2023-05-01T09:46:25;98850.00;;;19.92;42.98
9740;BME280;4909;42.680;26.324;2023-05-01T09:48:54;98842.53;;;20.29;42.94
9740;BME280;4909;42.680;26.324;2023-05-01T09:51:24;98847.09;;;20.83;40.64
9740;BME280;4909;42.680;26.324;2023-05-01T09:53:53;98846.97;;;21.28;40.87
9740;BME280;4909;42.680;26.324;2023-05-01T09:56:20;98846.25;;;21.46;37.39
9740;BME280;4909;42.680;26.324;2023-05-01T09:58:49;98849.94;;;21.24;35.90
9740;BME280;4909;42.680;26.324;2023-05-01T10:01:16;98853.22;;;21.28;37.73
9740;BME280;4909;42.680;26.324;2023-05-01T10:03:43;98847.47;;;21.53;35.92
9740;BME280;4909;42.680;26.324;2023-05-01T10:06:25;98842.63;;;21.57;35.64
9740;BME280;4909;42.680;26.324;2023-05-01T10:08:53;98833.16;;;21.83;35.60
9740;BME280;4909;42.680;26.324;2023-05-01T10:11:20;98841.28;;;22.14;35.02
9740;BME280;4909;42.680;26.324;2023-05-01T10:14:04;98833.44;;;22.10;32.91
9740;BME280;4909;42.680;26.324;2023-05-01T10:16:33;98846.78;;;22.02;34.43
9740;BME280;4909;42.680;26.324;2023-05-01T10:19:00;98820.03;;;21.37;35.07
9740;BME280;4909;42.680;26.324;2023-05-01T10:21:29;98849.88;;;21.36;35.38
9740;BME280;4909;42.680;26.324;2023-05-01T10:23:57;98851.34;;;20.97;36.61
9740;BME280;4909;42.680;26.324;2023-05-01T10:26:25;98851.69;;;20.71;36.90
9740;BME280;4909;42.680;26.324;2023-05-01T10:28:52;98844.75;;;20.47;38.16
9740;BME280;4909;42.680;26.324;2023-05-01T10:31:18;98841.66;;;20.29;38.79
9740;BME280;4909;42.680;26.324;2023-05-01T10:33:46;98835.69;;;20.48;39.97
9740;BME280;4909;42.680;26.324;2023-05-01T10:36:18;98831.59;;;20.96;39.92
9740;BME280;4909;42.680;26.324;2023-05-01T10:38:47;98838.28;;;21.45;37.07
9740;BME280;4909;42.680;26.324;2023-05-01T10:41:14;98841.19;;;21.53;36.52
9740;BME280;4909;42.680;26.324;2023-05-01T10:43:41;98842.72;;;21.66;35.89
9740;BME280;4909;42.680;26.324;2023-05-01T10:46:27;98838.63;;;21.72;36.01
9740;BME280;4909;42.680;26.324;2023-05-01T10:48:57;98828.47;;;21.64;38.61
9740;BME280;4909;42.680;26.324;2023-05-01T10:51:24;98834.19;;;21.71;37.71
9740;BME280;4909;42.680;26.324;2023-05-01T10:54:24;98841.31;;;21.51;36.60
9740;BME280;4909;42.680;26.324;2023-05-01T10:56:51;98835.22;;;21.49;37.08
9740;BME280;4909;42.680;26.324;2023-05-01T10:59:18;98841.72;;;21.47;37.65
9740;BME280;4909;42.680;26.324;2023-05-01T11:01:46;98834.88;;;21.63;37.80
9740;BME280;4909;42.680;26.324;2023-05-01T11:04:45;98839.94;;;21.57;36.07
9740;BME280;4909;42.680;26.324;2023-05-01T11:07:21;98830.25;;;21.34;37.00
9740;BME280;4909;42.680;26.324;2023-05-01T11:09:50;98829.69;;;20.87;37.37
9740;BME280;4909;42.680;26.324;2023-05-01T11:12:50;98840.00;;;20.82;37.80
9740;BME280;4909;42.680;26.324;2023-05-01T11:15:28;98847.16;;;20.72;38.37
9740;BME280;4909;42.680;26.324;2023-05-01T11:17:55;98839.31;;;20.58;39.40
9740;BME280;4909;42.680;26.324;2023-05-01T11:23:26;98847.03;;;20.62;39.35
9740;BME280;4909;42.680;26.324;2023-05-01T11:26:03;98816.34;;;20.43;39.19
9740;BME280;4909;42.680;26.324;2023-05-01T11:28:30;98834.19;;;20.44;38.55
9740;BME280;4909;42.680;26.324;2023-05-01T11:30:58;98832.63;;;20.41;39.36
9740;BME280;4909;42.680;26.324;2023-05-01T11:33:25;98833.31;;;20.65;38.78
9740;BME280;4909;42.680;26.324;2023-05-01T11:35:59;98827.59;;;20.91;39.72
9740;BME280;4909;42.680;26.324;2023-05-01T11:38:26;98835.59;;;21.13;38.27
9740;BME280;4909;42.680;26.324;2023-05-01T11:40:55;98826.16;;;21.18;37.02
9740;BME280;4909;42.680;26.324;2023-05-01T11:43:24;98839.94;;;21.04;37.55
9740;BME280;4909;42.680;26.324;2023-05-01T11:45:52;98834.53;;;21.15;36.89
9740;BME280;4909;42.680;26.324;2023-05-01T11:48:20;98824.13;;;21.00;36.78
9740;BME280;4909;42.680;26.324;2023-05-01T11:50:47;98830.97;;;21.04;38.02
9740;BME280;4909;42.680;26.324;2023-05-01T11:53:14;98829.25;;;21.14;39.25
9740;BME280;4909;42.680;26.324;2023-05-01T11:55:42;98831.38;;;20.99;37.68
9740;BME280;4909;42.680;26.324;2023-05-01T11:58:09;98792.84;;;20.65;38.33
9740;BME280;4909;42.680;26.324;2023-05-01T12:00:38;98823.06;;;20.91;38.08
9740;BME280;4909;42.680;26.324;2023-05-01T12:03:07;98820.09;;;20.94;38.36
9740;BME280;4909;42.680;26.324;2023-05-01T12:05:35;98823.38;;;20.98;38.57
9740;BME280;4909;42.680;26.324;2023-05-01T12:08:08;98820.97;;;20.95;38.05
9740;BME280;4909;42.680;26.324;2023-05-01T12:10:36;98824.13;;;21.00;37.79
9740;BME280;4909;42.680;26.324;2023-05-01T12:13:03;98834.56;;;20.93;37.78
9740;BME280;4909;42.680;26.324;2023-05-01T12:15:30;98824.59;;;21.05;38.14
9740;BME280;4909;42.680;26.324;2023-05-01T12:17:59;98825.19;;;21.08;37.39
9740;BME280;4909;42.680;26.324;2023-05-01T12:20:36;98825.97;;;20.99;37.55
9740;BME280;4909;42.680;26.324;2023-05-01T12:23:04;98821.59;;;20.87;38.34
9740;BME280;4909;42.680;26.324;2023-05-01T12:25:32;98823.91;;;20.92;38.29
9740;BME280;4909;42.680;26.324;2023-05-01T12:28:01;98829.91;;;20.95;36.52
9740;BME280;4909;42.680;26.324;2023-05-01T12:30:28;98819.91;;;20.86;37.88
9740;BME280;4909;42.680;26.324;2023-05-01T12:32:56;98817.41;;;20.94;38.35
9740;BME280;4909;42.680;26.324;2023-05-01T12:35:29;98831.56;;;21.18;37.51
9740;BME280;4909;42.680;26.324;2023-05-01T12:37:57;98828.19;;;21.26;37.70
9740;BME280;4909;42.680;26.324;2023-05-01T12:40:25;98821.63;;;21.40;36.93
9740;BME280;4909;42.680;26.324;2023-05-01T12:42:53;98816.91;;;21.53;36.67
9740;BME280;4909;42.680;26.324;2023-05-01T12:45:21;98811.41;;;21.22;38.06
9740;BME280;4909;42.680;26.324;2023-05-01T12:47:49;98814.13;;;21.43;38.54
9740;BME280;4909;42.680;26.324;2023-05-01T12:50:16;98812.41;;;21.42;36.15
9740;BME280;4909;42.680;26.324;2023-05-01T12:52:44;98815.50;;;21.38;35.84
9740;BME280;4909;42.680;26.324;2023-05-01T12:55:11;98804.13;;;21.34;37.10
9740;BME280;4909;42.680;26.324;2023-05-01T12:57:50;98813.16;;;21.44;36.96
9740;BME280;4909;42.680;26.324;2023-05-01T13:00:18;98819.69;;;21.31;37.21
9740;BME280;4909;42.680;26.324;2023-05-01T13:02:45;98812.66;;;21.18;37.33
9740;BME280;4909;42.680;26.324;2023-05-01T13:05:12;98822.22;;;21.11;37.54
9740;BME280;4909;42.680;26.324;2023-05-01T13:07:38;98814.69;;;20.94;37.66
9740;BME280;4909;42.680;26.324;2023-05-01T13:10:07;98818.25;;;20.95;37.46
9740;BME280;4909;42.680;26.324;2023-05-01T13:12:42;98816.56;;;20.82;37.36
9740;BME280;4909;42.680;26.324;2023-05-01T13:15:18;98811.09;;;20.73;37.57
9740;BME280;4909;42.680;26.324;2023-05-01T13:17:46;98814.66;;;20.73;37.83
9740;BME280;4909;42.680;26.324;2023-05-01T13:20:14;98813.63;;;20.86;37.71
9740;BME280;4909;42.680;26.324;2023-05-01T13:22:41;98812.19;;;20.81;37.75
9740;BME280;4909;42.680;26.324;2023-05-01T13:25:15;98821.38;;;20.79;37.99